SV2TW-2 Weather Reports


time (UTC)temp
F
wind
direction
speed
knots
gust
knots
rain 1hr
in
rain 24hr
in
rain mn
in
humidity
%
barometer
mb
20260902150204 85 225 3.5 0.0 0.00 0.00 0.00 42 1007.9
20260902145705 85 180 3.5 0.0 0.00 0.00 0.00 42 1007.9
20260902145204 85 135 1.7 0.0 0.00 0.00 0.00 42 1007.8
20260902144704 86 180 4.3 0.0 0.00 0.00 0.00 42 1007.9
20260902143204 88 180 5.2 0.0 0.00 0.00 0.00 39 1007.9
20260902142705 89 90 5.2 0.0 0.00 0.00 0.00 37 1007.7
20260902142204 89 180 1.7 0.0 0.00 0.00 0.00 37 1007.9
20260902141704 89 135 1.7 0.0 0.00 0.00 0.00 39 1007.9
20260902141204 89 180 1.7 0.0 0.00 0.00 0.00 38 1008.0
20260902140704 89 225 1.7 0.0 0.00 0.00 0.00 39 1008.2
20260902140204 89 135 3.5 0.0 0.00 0.00 0.00 38 1008.5
20260902135704 90 180 4.3 0.0 0.00 0.00 0.00 36 1008.2
20260902135204 90 135 3.5 0.0 0.00 0.00 0.00 34 1008.5
20260902134203 90 135 5.2 0.0 0.00 0.00 0.00 33 1008.7
20260902133703 89 225 3.5 0.0 0.00 0.00 0.00 33 1008.6
20260902133204 90 180 3.5 0.0 0.00 0.00 0.00 32 1008.6
20260902132704 90 180 6.1 0.0 0.00 0.00 0.00 33 1008.8
20260902132204 90 180 3.5 0.0 0.00 0.00 0.00 33 1008.6
20260902131703 90 180 7.0 0.0 0.00 0.00 0.00 32 1008.6
20260902131204 90 90 5.2 0.0 0.00 0.00 0.00 32 1008.8
20260902130704 90 158 4.3 0.0 0.00 0.00 0.00 32 1008.8
20260902130204 90 45 7.0 0.0 0.00 0.00 0.00 32 1008.7
20260902125704 90 203 6.1 0.0 0.00 0.00 0.00 31 1008.8
20260902125204 90 225 3.5 0.0 0.00 0.00 0.00 33 1008.7
20260902124205 90 180 7.0 0.0 0.00 0.00 0.00 32 1009.0
20260902123704 91 158 5.2 0.0 0.00 0.00 0.00 31 1008.8
20260902122204 88 180 1.7 0.0 0.00 0.00 0.00 41 1009.3
20260902121704 88 225 2.6 0.0 0.00 0.00 0.00 42 1009.3
20260902121204 87 135 1.7 0.0 0.00 0.00 0.00 43 1009.5
20260902120703 88 225 4.3 0.0 0.00 0.00 0.00 45 1009.6
20260902120203 88 270 1.7 0.0 0.00 0.00 0.00 46 1009.7
20260902115704 88 225 1.7 0.0 0.00 0.00 0.00 47 1009.7
20260902114704 88 180 3.5 0.0 0.00 0.00 0.00 44 1009.8
20260902114204 88 135 3.5 0.0 0.00 0.00 0.00 44 1009.7
20260902113703 88 270 3.5 0.0 0.00 0.00 0.00 44 1009.8
20260902113204 89 225 6.1 0.0 0.00 0.00 0.00 43 1010.0
20260902112705 89 180 7.0 0.0 0.00 0.00 0.00 43 1010.0
20260902112205 89 248 3.5 0.0 0.00 0.00 0.00 44 1009.9
20260902111704 89 270 1.7 0.0 0.00 0.00 0.00 44 1010.1
20260902110704 88 180 3.5 0.0 0.00 0.00 0.00 48 1010.2
20260902110204 88 180 3.5 0.0 0.00 0.00 0.00 48 1010.2
20260902105704 87 225 3.5 0.0 0.00 0.00 0.00 48 1010.3
20260902105204 87 225 5.2 0.0 0.00 0.00 0.00 49 1010.6
20260902104704 86 225 4.3 0.0 0.00 0.00 0.00 50 1010.4
20260902104204 86 180 3.5 0.0 0.00 0.00 0.00 50 1010.3
20260902103704 86 180 2.6 0.0 0.00 0.00 0.00 50 1010.6
20260902102703 85 270 3.5 0.0 0.00 0.00 0.00 50 1010.8
20260902102204 86 180 4.3 0.0 0.00 0.00 0.00 50 1010.7
20260902101703 84 203 1.7 0.0 0.00 0.00 0.00 52 1010.6
20260902101204 84 180 3.5 0.0 0.00 0.00 0.00 52 1010.8
20260902100704 84 225 4.3 0.0 0.00 0.00 0.00 53 1010.8
20260902100204 84 180 2.6 0.0 0.00 0.00 0.00 53 1010.9
20260902095703 84 248 2.6 0.0 0.00 0.00 0.00 52 1010.9
20260902095204 85 180 3.5 0.0 0.00 0.00 0.00 51 1011.0
20260902094704 85 180 4.3 0.0 0.00 0.00 0.00 50 1010.9
20260902093704 87 180 3.5 0.0 0.00 0.00 0.00 46 1010.9
20260902093204 87 180 1.7 0.0 0.00 0.00 0.00 42 1010.9
20260902092703 87 0 1.7 0.0 0.00 0.00 0.00 42 1011.1
20260902092204 88 45 3.5 0.0 0.00 0.00 0.00 42 1011.1
20260902091705 89 315 1.7 0.0 0.00 0.00 0.00 41 1011.2
20260902091204 88 135 2.6 0.0 0.00 0.00 0.00 43 1011.1
20260902090705 86 23 3.5 0.0 0.00 0.00 0.00 43 1011.1
20260902090204 86 0 3.5 0.0 0.00 0.00 0.00 41 1011.3
20260902085204 87 225 2.6 0.0 0.00 0.00 0.00 41 1011.5
20260902084704 87 225 1.7 0.0 0.00 0.00 0.00 42 1011.2
20260902084204 87 135 2.6 0.0 0.00 0.00 0.00 43 1011.3
20260902083704 86 0 7.0 0.0 0.00 0.00 0.00 43 1011.3
20260902083204 86 45 1.7 0.0 0.00 0.00 0.00 44 1011.3
20260902082703 85 45 3.5 0.0 0.00 0.00 0.00 47 1011.2
20260902081704 84 0 3.5 0.0 0.00 0.00 0.00 50 1011.4
20260902081204 84 45 2.6 0.0 0.00 0.00 0.00 51 1011.5
20260902080704 84 0 5.2 0.0 0.00 0.00 0.00 51 1011.4
20260902080204 83 45 4.3 0.0 0.00 0.00 0.00 51 1011.6
20260902075704 83 180 1.7 0.0 0.00 0.00 0.00 52 1011.5
20260902073704 83 135 1.7 0.0 0.00 0.00 0.00 56 1011.6
20260902072704 83 45 3.5 0.0 0.00 0.00 0.00 55 1011.3
20260902072204 83 0 3.5 0.0 0.00 0.00 0.00 54 1011.5
20260902071704 83 0 1.7 0.0 0.00 0.00 0.00 54 1011.4
20260902070705 82 135 2.6 0.0 0.00 0.00 0.00 57 1011.5
20260902070204 81 180 0.9 0.0 0.00 0.00 0.00 61 1011.5
20260902065704 81 45 2.6 0.0 0.00 0.00 0.00 61 1011.4
20260902064204 80 338 3.5 0.0 0.00 0.00 0.00 63 1011.3
20260902062704 79 45 2.6 0.0 0.00 0.00 0.00 63 1011.2
20260902062204 80 45 1.7 0.0 0.00 0.00 0.00 61 1011.2
20260902061704 80 45 2.6 0.0 0.00 0.00 0.00 61 1011.1
20260902060704 80 315 1.7 0.0 0.00 0.00 0.00 62 1011.3
20260902055703 79 45 3.5 0.0 0.00 0.00 0.00 62 1011.1
20260902055204 79 0 1.7 0.0 0.00 0.00 0.00 63 1011.1
20260902054704 78 180 0.9 0.0 0.00 0.00 0.00 63 1011.1
20260902053704 76 225 0.0 0.0 0.00 0.00 0.00 66 1011.1
20260902053204 76 225 0.0 0.0 0.00 0.00 0.00 67 1011.1
20260902052704 76 225 0.0 0.0 0.00 0.00 0.00 68 1011.1
20260902051704 75 180 0.0 0.0 0.00 0.00 0.00 71 1011.1
20260902051204 74 135 0.9 0.0 0.00 0.00 0.00 72 1011.0
20260902050204 72 135 0.0 0.0 0.00 0.00 0.00 77 1010.9
20260902045704 71 225 0.0 0.0 0.00 0.00 0.00 77 1011.0
20260902045203 71 225 0.9 0.0 0.00 0.00 0.00 78 1010.8
20260902044704 70 225 0.0 0.0 0.00 0.00 0.00 78 1010.9
20260902044204 70 225 0.9 0.0 0.00 0.00 0.00 79 1010.7
20260902043704 69 180 1.7 0.0 0.00 0.00 0.00 80 1010.9
20260902042704 69 225 0.0 0.0 0.00 0.00 0.00 80 1010.6
20260902042204 69 225 0.0 0.0 0.00 0.00 0.00 79 1010.6
20260902041704 69 225 0.0 0.0 0.00 0.00 0.00 79 1010.4
20260902041204 70 225 0.0 0.0 0.00 0.00 0.00 79 1010.3
20260902040704 70 225 0.9 0.0 0.00 0.00 0.00 79 1010.4
20260902035203 70 180 0.9 0.0 0.00 0.00 0.00 79 1010.3
20260902034204 71 225 0.0 0.0 0.00 0.00 0.00 78 1010.3
20260902033704 71 225 0.9 0.0 0.00 0.00 0.00 78 1010.2
20260902033205 71 225 0.0 0.0 0.00 0.00 0.00 77 1010.2
20260902032704 71 225 0.0 0.0 0.00 0.00 0.00 77 1010.1
20260902032204 71 225 0.0 0.0 0.00 0.00 0.00 76 1010.1
20260902031704 72 270 0.0 0.0 0.00 0.00 0.00 76 1010.2
20260902031204 72 270 0.9 0.0 0.00 0.00 0.00 75 1010.2
20260902030704 72 45 0.0 0.0 0.00 0.00 0.00 75 1010.3
20260902030204 73 45 0.0 0.0 0.00 0.00 0.00 72 1010.3
20260902025704 73 45 0.0 0.0 0.00 0.00 0.00 72 1010.2
20260902024704 73 135 1.7 0.0 0.00 0.00 0.00 72 1010.3
20260902024203 73 225 0.0 0.0 0.00 0.00 0.00 72 1010.2
20260902023704 73 45 1.7 0.0 0.00 0.00 0.00 72 1010.1
20260902023204 73 0 0.0 0.0 0.00 0.00 0.00 73 1010.1
20260902022704 73 0 0.9 0.0 0.00 0.00 0.00 73 1010.0
20260902021703 72 90 0.0 0.0 0.00 0.00 0.00 75 1010.3
20260902021204 72 135 0.0 0.0 0.00 0.00 0.00 75 1010.3
20260902020704 72 0 0.0 0.0 0.00 0.00 0.00 75 1010.3
20260902020204 72 180 0.0 0.0 0.00 0.00 0.00 75 1010.3
20260902015703 72 225 0.9 0.0 0.00 0.00 0.00 75 1010.2
20260902014704 72 225 1.7 0.0 0.00 0.00 0.00 75 1010.4
20260902014205 72 0 0.0 0.0 0.00 0.00 0.00 74 1010.6
20260902013704 72 315 0.9 0.0 0.00 0.00 0.00 75 1010.3
20260902013204 72 0 0.9 0.0 0.00 0.00 0.00 75 1010.4
20260902012704 72 225 1.7 0.0 0.00 0.00 0.00 75 1010.3
20260902012204 71 270 0.0 0.0 0.00 0.00 0.00 75 1010.2
20260902011704 71 270 0.9 0.0 0.00 0.00 0.00 75 1010.3
20260902011204 71 225 0.9 0.0 0.00 0.00 0.00 76 1010.2
20260902010704 71 225 0.9 0.0 0.00 0.00 0.00 75 1010.1
20260902005704 71 180 0.0 0.0 0.00 0.00 0.00 74 1010.1
20260902005204 71 90 0.9 0.0 0.00 0.00 0.00 74 1010.0
20260902004704 71 225 0.9 0.0 0.00 0.00 0.00 74 1010.1
20260902004204 71 225 0.0 0.0 0.00 0.00 0.00 74 1010.1
20260902003204 71 180 0.0 0.0 0.00 0.00 0.00 75 1009.8
20260902002704 71 180 0.9 0.0 0.00 0.00 0.00 75 1009.8
20260902001703 71 270 0.0 0.0 0.00 0.00 0.00 75 1009.9
20260902001204 71 225 0.0 0.0 0.00 0.00 0.00 75 1009.9
20260902000704 71 225 0.0 0.0 0.00 0.00 0.00 75 1009.9
20260902000204 71 225 1.7 0.0 0.00 0.00 0.00 75 1009.9
20260901235704 71 180 0.0 0.0 0.00 0.00 0.00 75 1009.8
20260901235204 71 180 0.0 0.0 0.00 0.00 0.00 75 1009.7
20260901234704 71 180 1.7 0.0 0.00 0.00 0.00 76 1010.0
20260901234204 71 180 0.0 0.0 0.00 0.00 0.00 76 1010.0
20260901233704 71 225 0.0 0.0 0.00 0.00 0.00 76 1010.0
20260901232704 71 225 0.0 0.0 0.00 0.00 0.00 76 1009.9
20260901232204 71 225 0.0 0.0 0.00 0.00 0.00 75 1010.0
20260901231704 71 225 0.0 0.0 0.00 0.00 0.00 75 1009.8
20260901230704 71 225 0.9 0.0 0.00 0.00 0.00 74 1009.9
20260901230204 72 225 0.9 0.0 0.00 0.00 0.00 74 1009.8
20260901225704 72 225 0.9 0.0 0.00 0.00 0.00 74 1009.8
20260901225204 72 180 0.0 0.0 0.00 0.00 0.00 73 1009.7
20260901224704 73 180 0.9 0.0 0.00 0.00 0.00 71 1009.6
20260901224204 73 225 0.9 0.0 0.00 0.00 0.00 71 1009.5
20260901222704 72 180 0.9 0.0 0.00 0.00 0.00 75 1009.6
20260901222204 72 180 1.7 0.0 0.00 0.00 0.00 75 1009.7
20260901221704 72 225 0.0 0.0 0.00 0.00 0.00 74 1009.8
20260901220704 72 225 0.9 0.0 0.00 0.00 0.00 74 1009.7
20260901220204 72 225 1.7 0.0 0.00 0.00 0.00 74 1009.8
20260901215704 73 225 0.9 0.0 0.00 0.00 0.00 71 1009.7
20260901214204 73 225 0.0 0.0 0.00 0.00 0.00 71 1009.7
20260901213704 73 180 0.0 0.0 0.00 0.00 0.00 71 1009.7
20260901213205 72 225 0.0 0.0 0.00 0.00 0.00 73 1009.7
20260901212704 72 225 0.0 0.0 0.00 0.00 0.00 73 1009.5
20260901212203 73 225 0.0 0.0 0.00 0.00 0.00 71 1009.6
20260901211703 73 225 0.0 0.0 0.00 0.00 0.00 70 1009.5
20260901211204 73 225 0.0 0.0 0.00 0.00 0.00 70 1009.5
20260901210704 74 225 0.0 0.0 0.00 0.00 0.00 70 1009.5
20260901210204 73 180 0.0 0.0 0.00 0.00 0.00 70 1009.4
20260901205704 73 225 0.0 0.0 0.00 0.00 0.00 70 1009.6
20260901205204 73 225 0.0 0.0 0.00 0.00 0.00 70 1009.5
20260901204704 73 225 0.0 0.0 0.00 0.00 0.00 70 1009.5
20260901203204 73 225 0.0 0.0 0.00 0.00 0.00 70 1009.5
20260901202704 73 180 0.0 0.0 0.00 0.00 0.00 70 1009.5
20260901202204 73 180 0.0 0.0 0.00 0.00 0.00 70 1009.4
20260901201204 73 225 0.0 0.0 0.00 0.00 0.00 69 1009.6
20260901200704 74 225 0.0 0.0 0.00 0.00 0.00 70 1009.4
20260901200204 74 225 1.7 0.0 0.00 0.00 0.00 70 1009.5
20260901195703 73 180 0.0 0.0 0.00 0.00 0.00 70 1009.4
20260901195203 73 225 0.9 0.0 0.00 0.00 0.00 70 1009.3
20260901194704 73 180 1.7 0.0 0.00 0.00 0.00 71 1009.5
20260901194204 73 180 0.9 0.0 0.00 0.00 0.00 70 1009.4
20260901193704 73 225 0.0 0.0 0.00 0.00 0.00 70 1009.5
20260901192704 73 225 0.0 0.0 0.00 0.00 0.00 70 1009.5
20260901191704 73 225 0.9 0.0 0.00 0.00 0.00 69 1009.5
20260901191204 73 225 0.9 0.0 0.00 0.00 0.00 68 1009.4
20260901190704 73 225 0.0 0.0 0.00 0.00 0.00 68 1009.2
20260901190204 74 225 0.9 0.0 0.00 0.00 0.00 67 1009.4
20260901185704 74 225 0.9 0.0 0.00 0.00 0.00 67 1009.1
20260901185203 74 270 0.0 0.0 0.00 0.00 0.00 67 1009.0
20260901183704 74 225 0.0 0.0 0.00 0.00 0.00 67 1008.9
20260901183204 74 225 0.9 0.0 0.00 0.00 0.00 66 1008.8
20260901182704 74 225 0.0 0.0 0.00 0.00 0.00 65 1008.6
20260901182204 74 225 0.0 0.0 0.00 0.00 0.00 65 1008.5
20260901181704 75 225 0.0 0.0 0.00 0.00 0.00 64 1008.4
20260901181204 75 225 0.9 0.0 0.00 0.00 0.00 64 1008.2
20260901180704 75 225 0.0 0.0 0.00 0.00 0.00 63 1008.1
20260901180204 76 225 0.9 0.0 0.00 0.00 0.00 62 1008.1
20260901175704 76 225 0.9 0.0 0.00 0.00 0.00 62 1007.8
20260901175203 77 90 0.9 0.0 0.00 0.00 0.00 61 1007.9
20260901174704 78 180 0.0 0.0 0.00 0.00 0.00 61 1007.8
20260901173704 78 180 1.7 0.0 0.00 0.00 0.00 61 1007.7
20260901173205 79 180 0.0 0.0 0.00 0.00 0.00 60 1007.8
20260901172704 79 180 0.0 0.0 0.00 0.00 0.00 60 1007.7
20260901171704 79 180 1.7 0.0 0.00 0.00 0.00 60 1007.8
20260901171204 80 135 0.0 0.0 0.00 0.00 0.00 59 1007.7
20260901170704 80 135 0.0 0.0 0.00 0.00 0.00 59 1007.6
20260901170204 80 225 0.9 0.0 0.00 0.00 0.00 58 1007.5
20260901165704 80 180 0.0 0.0 0.00 0.00 0.00 58 1007.6
20260901165204 80 135 1.7 0.0 0.00 0.00 0.00 58 1007.5
20260901164704 81 135 0.0 0.0 0.00 0.00 0.00 57 1007.5
20260901163204 82 225 1.7 0.0 0.00 0.00 0.00 52 1007.3
20260901162704 82 225 2.6 0.0 0.00 0.00 0.00 52 1007.3
20260901162203 82 180 4.3 0.0 0.00 0.00 0.00 51 1007.2
20260901161704 83 180 4.3 0.0 0.00 0.00 0.00 51 1007.3
20260901161203 83 180 4.3 0.0 0.00 0.00 0.00 51 1007.0
20260901160703 84 225 6.1 0.0 0.00 0.00 0.00 50 1007.0
20260901160205 84 225 4.3 0.0 0.00 0.00 0.00 50 1007.0
20260901155704 85 225 2.6 0.0 0.00 0.00 0.00 50 1006.8
20260901155204 85 180 4.3 0.0 0.00 0.00 0.00 50 1007.0
20260901154703 85 135 4.3 0.0 0.00 0.00 0.00 50 1006.9
20260901154204 85 180 3.5 0.0 0.00 0.00 0.00 50 1006.8
20260901153704 85 225 5.2 0.0 0.00 0.00 0.00 49 1006.9
20260901153203 85 0.0 0.0 0.00 0.00 0.00 49
20260901152704 86 180 5.2 0.0 0.00 0.00 0.00 48 1006.7
20260901152204 86 225 4.3 0.0 0.00 0.00 0.00 48 1006.9
20260901151705 86 135 4.3 0.0 0.00 0.00 0.00 48 1006.8
20260901150704 86 225 7.0 0.0 0.00 0.00 0.00 47 1007.1